FDX448 KBDL-KMVY
Flight info
| Callsign | FDX448 |
|---|---|
| Flight time | 0h 56m |
| Altitude | 7000 |
| Route | PVD V405 MVY |
| Aircraft | C208/L-SDFGR/C |
Departure
| Time | 2026-04-30 01:52 |
|---|---|
| Airport | Bradley International Airport (KBDL) |
Arrival
| Time | 2026-04-30 02:48 |
|---|---|
| Airport | Martha's Vineyard Airport (KMVY) |
| Time | Latitude | Longitude | Altitude | Speed | Heading |
|---|---|---|---|---|---|
| 2026-04-30 01:35 | 41.93407 | -72.68869 | 182 ft | 0 kts | 96° |
| 2026-04-30 01:44 | 41.93422 | -72.68853 | 182 ft | 7 kts | 333° |
| 2026-04-30 01:44 | 41.93485 | -72.68895 | 183 ft | 9 kts | 338° |
| 2026-04-30 01:44 | 41.93554 | -72.68906 | 185 ft | 8 kts | 21° |
| 2026-04-30 01:44 | 41.93619 | -72.68829 | 185 ft | 17 kts | 46° |
| 2026-04-30 01:45 | 41.93686 | -72.68742 | 183 ft | 7 kts | 45° |
| 2026-04-30 01:45 | 41.93699 | -72.68726 | 182 ft | 0 kts | 44° |
| 2026-04-30 01:45 | 41.93718 | -72.68700 | 182 ft | 13 kts | 43° |
| 2026-04-30 01:45 | 41.93782 | -72.68620 | 181 ft | 13 kts | 42° |
| 2026-04-30 01:46 | 41.93861 | -72.68520 | 180 ft | 14 kts | 43° |
| 2026-04-30 01:46 | 41.93935 | -72.68433 | 180 ft | 21 kts | 41° |
| 2026-04-30 01:46 | 41.94038 | -72.68308 | 183 ft | 17 kts | 42° |
| 2026-04-30 01:46 | 41.94120 | -72.68208 | 183 ft | 15 kts | 42° |
| 2026-04-30 01:47 | 41.94200 | -72.68110 | 185 ft | 16 kts | 41° |
| 2026-04-30 01:47 | 41.94281 | -72.68012 | 183 ft | 17 kts | 44° |
| 2026-04-30 01:47 | 41.94356 | -72.67915 | 182 ft | 16 kts | 44° |
| 2026-04-30 01:47 | 41.94449 | -72.67793 | 179 ft | 18 kts | 46° |
| 2026-04-30 01:48 | 41.94537 | -72.67678 | 177 ft | 16 kts | 43° |
| 2026-04-30 01:48 | 41.94619 | -72.67571 | 176 ft | 15 kts | 44° |
| 2026-04-30 01:48 | 41.94692 | -72.67476 | 176 ft | 13 kts | 45° |
| 2026-04-30 01:48 | 41.94757 | -72.67391 | 178 ft | 14 kts | 45° |
| 2026-04-30 01:49 | 41.94830 | -72.67297 | 178 ft | 13 kts | 44° |
| 2026-04-30 01:49 | 41.94888 | -72.67218 | 178 ft | 13 kts | 45° |
| 2026-04-30 01:49 | 41.94962 | -72.67141 | 178 ft | 12 kts | 11° |
| 2026-04-30 01:49 | 41.94996 | -72.67144 | 178 ft | 0 kts | 319° |
| 2026-04-30 01:51 | 41.95018 | -72.67174 | 177 ft | 10 kts | 313° |
| 2026-04-30 01:51 | 41.95031 | -72.67264 | 177 ft | 11 kts | 234° |
| 2026-04-30 01:51 | 41.94818 | -72.67542 | 178 ft | 80 kts | 225° |
| 2026-04-30 01:52 | 41.94364 | -72.68134 | 469 ft | 94 kts | 222° |
| 2026-04-30 01:52 | 41.93889 | -72.68785 | 917 ft | 96 kts | 222° |
| 2026-04-30 01:52 | 41.93417 | -72.69426 | 1411 ft | 98 kts | 222° |
| 2026-04-30 01:52 | 41.92960 | -72.70108 | 1901 ft | 99 kts | 223° |
| 2026-04-30 01:53 | 41.92507 | -72.70807 | 2375 ft | 100 kts | 223° |
| 2026-04-30 01:53 | 41.92051 | -72.71522 | 2838 ft | 101 kts | 223° |
| 2026-04-30 01:53 | 41.91594 | -72.72239 | 3303 ft | 101 kts | 223° |
| 2026-04-30 01:53 | 41.91139 | -72.72957 | 3752 ft | 101 kts | 223° |
| 2026-04-30 01:54 | 41.90628 | -72.73714 | 3928 ft | 125 kts | 224° |
| 2026-04-30 01:54 | 41.89970 | -72.74639 | 3935 ft | 146 kts | 223° |
| 2026-04-30 01:54 | 41.89234 | -72.75661 | 3928 ft | 155 kts | 224° |
| 2026-04-30 01:54 | 41.88510 | -72.76668 | 3929 ft | 149 kts | 223° |
| 2026-04-30 01:55 | 41.87802 | -72.77658 | 3925 ft | 145 kts | 224° |
| 2026-04-30 01:55 | 41.87112 | -72.78622 | 3923 ft | 142 kts | 223° |
| 2026-04-30 01:55 | 41.86435 | -72.79573 | 3925 ft | 141 kts | 224° |
| 2026-04-30 01:55 | 41.85759 | -72.80524 | 3925 ft | 141 kts | 224° |
| 2026-04-30 01:56 | 41.85313 | -72.81153 | 3923 ft | 141 kts | 224° |
| 2026-04-30 01:56 | 41.84636 | -72.82105 | 3926 ft | 141 kts | 224° |
| 2026-04-30 01:56 | 41.83962 | -72.83056 | 3922 ft | 141 kts | 224° |
| 2026-04-30 01:56 | 41.83128 | -72.83625 | 3920 ft | 137 kts | 179° |
| 2026-04-30 01:57 | 41.82235 | -72.83212 | 3922 ft | 139 kts | 147° |
| 2026-04-30 01:57 | 41.81640 | -72.82193 | 3920 ft | 143 kts | 116° |
| 2026-04-30 01:57 | 41.81511 | -72.80855 | 3918 ft | 147 kts | 95° |
| 2026-04-30 01:57 | 41.81478 | -72.79485 | 3919 ft | 147 kts | 98° |
| 2026-04-30 01:58 | 41.81408 | -72.78124 | 3917 ft | 146 kts | 99° |
| 2026-04-30 01:58 | 41.81328 | -72.76766 | 3919 ft | 146 kts | 99° |
| 2026-04-30 01:58 | 41.81247 | -72.75408 | 3919 ft | 146 kts | 99° |
| 2026-04-30 01:58 | 41.81165 | -72.74055 | 3915 ft | 146 kts | 100° |
| 2026-04-30 01:59 | 41.81000 | -72.71352 | 3920 ft | 145 kts | 99° |
| 2026-04-30 01:59 | 41.80918 | -72.70001 | 3918 ft | 145 kts | 99° |
| 2026-04-30 01:59 | 41.80836 | -72.68668 | 3921 ft | 145 kts | 99° |
| 2026-04-30 02:00 | 41.80756 | -72.67341 | 4021 ft | 138 kts | 99° |
| 2026-04-30 02:00 | 41.80680 | -72.66074 | 4174 ft | 136 kts | 99° |
| 2026-04-30 02:00 | 41.80602 | -72.64808 | 4328 ft | 137 kts | 100° |
| 2026-04-30 02:00 | 41.80523 | -72.63528 | 4483 ft | 138 kts | 100° |
| 2026-04-30 02:01 | 41.80443 | -72.62238 | 4646 ft | 139 kts | 100° |
| 2026-04-30 02:01 | 41.80363 | -72.60945 | 4793 ft | 140 kts | 100° |
| 2026-04-30 02:01 | 41.80282 | -72.59643 | 4936 ft | 140 kts | 99° |
| 2026-04-30 02:01 | 41.80203 | -72.58357 | 5100 ft | 140 kts | 99° |
| 2026-04-30 02:02 | 41.80122 | -72.57057 | 5249 ft | 140 kts | 100° |
| 2026-04-30 02:02 | 41.80040 | -72.55757 | 5400 ft | 140 kts | 99° |
| 2026-04-30 02:02 | 41.79959 | -72.54455 | 5550 ft | 141 kts | 99° |
| 2026-04-30 02:02 | 41.79884 | -72.53124 | 5737 ft | 145 kts | 99° |
| 2026-04-30 02:03 | 41.79796 | -72.51760 | 5941 ft | 148 kts | 99° |
| 2026-04-30 02:03 | 41.79704 | -72.50371 | 6146 ft | 150 kts | 99° |
| 2026-04-30 02:03 | 41.79615 | -72.48970 | 6349 ft | 152 kts | 99° |
| 2026-04-30 02:03 | 41.79525 | -72.47555 | 6541 ft | 153 kts | 99° |
| 2026-04-30 02:04 | 41.79436 | -72.46131 | 6736 ft | 153 kts | 99° |
| 2026-04-30 02:04 | 41.79345 | -72.44705 | 6922 ft | 155 kts | 99° |
| 2026-04-30 02:04 | 41.79248 | -72.43214 | 6933 ft | 166 kts | 99° |
| 2026-04-30 02:04 | 41.79146 | -72.41646 | 6934 ft | 172 kts | 99° |
| 2026-04-30 02:05 | 41.79044 | -72.40037 | 6936 ft | 175 kts | 99° |
| 2026-04-30 02:05 | 41.78941 | -72.38408 | 6939 ft | 176 kts | 99° |
| 2026-04-30 02:05 | 41.78837 | -72.36785 | 6938 ft | 177 kts | 99° |
| 2026-04-30 02:05 | 41.78732 | -72.35139 | 6944 ft | 178 kts | 99° |
| 2026-04-30 02:06 | 41.78625 | -72.33491 | 6935 ft | 178 kts | 99° |
| 2026-04-30 02:06 | 41.78520 | -72.31841 | 6934 ft | 177 kts | 99° |
| 2026-04-30 02:06 | 41.78413 | -72.30196 | 6936 ft | 177 kts | 99° |
| 2026-04-30 02:06 | 41.78307 | -72.28555 | 6933 ft | 177 kts | 99° |
| 2026-04-30 02:07 | 41.78201 | -72.26917 | 6931 ft | 175 kts | 99° |
| 2026-04-30 02:07 | 41.78096 | -72.25310 | 6934 ft | 172 kts | 99° |
| 2026-04-30 02:07 | 41.77992 | -72.23714 | 6927 ft | 172 kts | 99° |
| 2026-04-30 02:07 | 41.77888 | -72.22125 | 6927 ft | 171 kts | 99° |
| 2026-04-30 02:08 | 41.77785 | -72.20541 | 6931 ft | 170 kts | 99° |
| 2026-04-30 02:08 | 41.77679 | -72.18961 | 6939 ft | 170 kts | 99° |
| 2026-04-30 02:08 | 41.77576 | -72.17385 | 6936 ft | 170 kts | 99° |
| 2026-04-30 02:08 | 41.77474 | -72.15806 | 6936 ft | 170 kts | 99° |
| 2026-04-30 02:09 | 41.77370 | -72.14229 | 6936 ft | 170 kts | 99° |
| 2026-04-30 02:09 | 41.77265 | -72.12651 | 6936 ft | 170 kts | 99° |
| 2026-04-30 02:09 | 41.77161 | -72.11073 | 6944 ft | 170 kts | 99° |
| 2026-04-30 02:09 | 41.77055 | -72.09489 | 6938 ft | 171 kts | 99° |
| 2026-04-30 02:10 | 41.76949 | -72.07904 | 6935 ft | 171 kts | 99° |
| 2026-04-30 02:10 | 41.76845 | -72.06322 | 6937 ft | 170 kts | 99° |
| 2026-04-30 02:10 | 41.76739 | -72.04740 | 6935 ft | 170 kts | 99° |
| 2026-04-30 02:10 | 41.76634 | -72.03179 | 6935 ft | 170 kts | 99° |
| 2026-04-30 02:11 | 41.76528 | -72.01600 | 6948 ft | 170 kts | 99° |
| 2026-04-30 02:11 | 41.76422 | -72.00020 | 6937 ft | 170 kts | 99° |
| 2026-04-30 02:11 | 41.76315 | -71.98439 | 6938 ft | 170 kts | 99° |
| 2026-04-30 02:11 | 41.76208 | -71.96859 | 6939 ft | 171 kts | 99° |
| 2026-04-30 02:12 | 41.76101 | -71.95276 | 6938 ft | 171 kts | 99° |
| 2026-04-30 02:12 | 41.75993 | -71.93694 | 6937 ft | 171 kts | 99° |
| 2026-04-30 02:12 | 41.75886 | -71.92113 | 6938 ft | 171 kts | 99° |
| 2026-04-30 02:12 | 41.75778 | -71.90529 | 6934 ft | 171 kts | 100° |
| 2026-04-30 02:13 | 41.75670 | -71.88944 | 6936 ft | 171 kts | 100° |
| 2026-04-30 02:13 | 41.75562 | -71.87356 | 6943 ft | 171 kts | 100° |
| 2026-04-30 02:13 | 41.75454 | -71.85775 | 6936 ft | 171 kts | 100° |
| 2026-04-30 02:13 | 41.75345 | -71.84194 | 6936 ft | 170 kts | 100° |
| 2026-04-30 02:14 | 41.75236 | -71.82613 | 6935 ft | 171 kts | 100° |
| 2026-04-30 02:14 | 41.75127 | -71.81027 | 6937 ft | 171 kts | 100° |
| 2026-04-30 02:14 | 41.75018 | -71.79446 | 6943 ft | 170 kts | 100° |
| 2026-04-30 02:14 | 41.74910 | -71.77885 | 6944 ft | 170 kts | 100° |
| 2026-04-30 02:15 | 41.74800 | -71.76307 | 6950 ft | 170 kts | 100° |
| 2026-04-30 02:15 | 41.74690 | -71.74721 | 6946 ft | 171 kts | 100° |
| 2026-04-30 02:15 | 41.74580 | -71.73139 | 6947 ft | 171 kts | 100° |
| 2026-04-30 02:15 | 41.74470 | -71.71556 | 6954 ft | 171 kts | 100° |
| 2026-04-30 02:16 | 41.74359 | -71.69971 | 6950 ft | 171 kts | 100° |
| 2026-04-30 02:16 | 41.74248 | -71.68385 | 6951 ft | 171 kts | 100° |
| 2026-04-30 02:16 | 41.74136 | -71.66796 | 6954 ft | 171 kts | 100° |
| 2026-04-30 02:16 | 41.74026 | -71.65231 | 6954 ft | 171 kts | 100° |
| 2026-04-30 02:17 | 41.73914 | -71.63645 | 6963 ft | 171 kts | 100° |
| 2026-04-30 02:17 | 41.73801 | -71.62055 | 6964 ft | 171 kts | 100° |
| 2026-04-30 02:17 | 41.73689 | -71.60464 | 6967 ft | 171 kts | 100° |
| 2026-04-30 02:17 | 41.73576 | -71.58873 | 6968 ft | 171 kts | 100° |
| 2026-04-30 02:18 | 41.73465 | -71.57289 | 6966 ft | 171 kts | 100° |
| 2026-04-30 02:18 | 41.73356 | -71.55704 | 6967 ft | 171 kts | 100° |
| 2026-04-30 02:18 | 41.73251 | -71.54117 | 6962 ft | 171 kts | 100° |
| 2026-04-30 02:18 | 41.73149 | -71.52531 | 6962 ft | 171 kts | 100° |
| 2026-04-30 02:19 | 41.73051 | -71.50941 | 6963 ft | 171 kts | 99° |
| 2026-04-30 02:19 | 41.72958 | -71.49374 | 6967 ft | 171 kts | 99° |
| 2026-04-30 02:19 | 41.72867 | -71.47787 | 6963 ft | 171 kts | 99° |
| 2026-04-30 02:19 | 41.72780 | -71.46198 | 6963 ft | 171 kts | 99° |
| 2026-04-30 02:20 | 41.72697 | -71.44608 | 6963 ft | 171 kts | 99° |
| 2026-04-30 02:20 | 41.72617 | -71.43019 | 6963 ft | 171 kts | 98° |
| 2026-04-30 02:20 | 41.72544 | -71.41448 | 7009 ft | 169 kts | 98° |
| 2026-04-30 02:20 | 41.72475 | -71.39873 | 7009 ft | 170 kts | 98° |
| 2026-04-30 02:21 | 41.72410 | -71.38293 | 7014 ft | 170 kts | 98° |
| 2026-04-30 02:21 | 41.72348 | -71.36708 | 7010 ft | 170 kts | 98° |
| 2026-04-30 02:21 | 41.72278 | -71.35128 | 7010 ft | 170 kts | 99° |
| 2026-04-30 02:21 | 41.71883 | -71.33718 | 7033 ft | 160 kts | 139° |
| 2026-04-30 02:22 | 41.70919 | -71.33068 | 7028 ft | 156 kts | 166° |
| 2026-04-30 02:22 | 41.69889 | -71.32591 | 7029 ft | 157 kts | 164° |
| 2026-04-30 02:22 | 41.68859 | -71.32108 | 7028 ft | 157 kts | 164° |
| 2026-04-30 02:22 | 41.67821 | -71.31648 | 7019 ft | 156 kts | 173° |
| 2026-04-30 02:23 | 41.66768 | -71.31298 | 7018 ft | 158 kts | 162° |
| 2026-04-30 02:23 | 41.65748 | -71.30743 | 6990 ft | 158 kts | 163° |
| 2026-04-30 02:23 | 41.64708 | -71.30267 | 6989 ft | 158 kts | 165° |
| 2026-04-30 02:23 | 41.63683 | -71.29792 | 6994 ft | 158 kts | 164° |
| 2026-04-30 02:24 | 41.62644 | -71.29294 | 6988 ft | 159 kts | 164° |
| 2026-04-30 02:24 | 41.61596 | -71.28790 | 6991 ft | 160 kts | 164° |
| 2026-04-30 02:24 | 41.60543 | -71.28282 | 6988 ft | 161 kts | 164° |
| 2026-04-30 02:24 | 41.59491 | -71.27775 | 6993 ft | 161 kts | 164° |
| 2026-04-30 02:25 | 41.58435 | -71.27268 | 6990 ft | 161 kts | 163° |
| 2026-04-30 02:25 | 41.57381 | -71.26760 | 6989 ft | 161 kts | 164° |
| 2026-04-30 02:25 | 41.56322 | -71.26251 | 6990 ft | 161 kts | 164° |
| 2026-04-30 02:25 | 41.55264 | -71.25743 | 6987 ft | 161 kts | 164° |
| 2026-04-30 02:26 | 41.54209 | -71.25235 | 6994 ft | 161 kts | 163° |
| 2026-04-30 02:26 | 41.53153 | -71.24728 | 7003 ft | 161 kts | 163° |
| 2026-04-30 02:26 | 41.52098 | -71.24221 | 7000 ft | 161 kts | 163° |
| 2026-04-30 02:26 | 41.51045 | -71.23717 | 7002 ft | 161 kts | 164° |
| 2026-04-30 02:27 | 41.49993 | -71.23211 | 6999 ft | 161 kts | 164° |
| 2026-04-30 02:27 | 41.48956 | -71.22714 | 7001 ft | 161 kts | 164° |
| 2026-04-30 02:27 | 41.47903 | -71.22210 | 6996 ft | 161 kts | 164° |
| 2026-04-30 02:27 | 41.46852 | -71.21705 | 6985 ft | 161 kts | 164° |
| 2026-04-30 02:28 | 41.45798 | -71.21201 | 6984 ft | 161 kts | 164° |
| 2026-04-30 02:28 | 41.44758 | -71.20645 | 6970 ft | 164 kts | 150° |
| 2026-04-30 02:28 | 41.44117 | -71.19384 | 6980 ft | 173 kts | 107° |
| 2026-04-30 02:28 | 41.44286 | -71.17786 | 6985 ft | 180 kts | 71° |
| 2026-04-30 02:29 | 41.44844 | -71.16289 | 6998 ft | 180 kts | 66° |
| 2026-04-30 02:29 | 41.45419 | -71.14804 | 6994 ft | 180 kts | 66° |
| 2026-04-30 02:29 | 41.46000 | -71.13322 | 6993 ft | 178 kts | 66° |
| 2026-04-30 02:29 | 41.46577 | -71.11872 | 6989 ft | 175 kts | 66° |
| 2026-04-30 02:30 | 41.47146 | -71.10441 | 6991 ft | 174 kts | 66° |
| 2026-04-30 02:30 | 41.47702 | -71.09041 | 6985 ft | 173 kts | 66° |
| 2026-04-30 02:30 | 41.48266 | -71.07624 | 6984 ft | 172 kts | 66° |
| 2026-04-30 02:30 | 41.48838 | -71.06174 | 6801 ft | 181 kts | 66° |
| 2026-04-30 02:31 | 41.49416 | -71.04695 | 6583 ft | 179 kts | 66° |
| 2026-04-30 02:31 | 41.49988 | -71.03236 | 6363 ft | 177 kts | 66° |
| 2026-04-30 02:31 | 41.50556 | -71.01781 | 6108 ft | 177 kts | 66° |
| 2026-04-30 02:31 | 41.51124 | -71.00334 | 5857 ft | 176 kts | 66° |
| 2026-04-30 02:32 | 41.51691 | -70.98896 | 5609 ft | 175 kts | 66° |
| 2026-04-30 02:32 | 41.52255 | -70.97464 | 5359 ft | 174 kts | 66° |
| 2026-04-30 02:32 | 41.52819 | -70.96039 | 5090 ft | 173 kts | 66° |
| 2026-04-30 02:32 | 41.53374 | -70.94648 | 5018 ft | 163 kts | 66° |
| 2026-04-30 02:33 | 41.53891 | -70.93375 | 5010 ft | 154 kts | 66° |
| 2026-04-30 02:33 | 41.54397 | -70.92141 | 5009 ft | 149 kts | 66° |
| 2026-04-30 02:33 | 41.54847 | -70.90922 | 5006 ft | 144 kts | 75° |
| 2026-04-30 02:33 | 41.55173 | -70.89671 | 5010 ft | 142 kts | 76° |
| 2026-04-30 02:34 | 41.55496 | -70.88433 | 5010 ft | 141 kts | 76° |
| 2026-04-30 02:34 | 41.55818 | -70.87202 | 5003 ft | 140 kts | 76° |
| 2026-04-30 02:34 | 41.56148 | -70.85983 | 5005 ft | 139 kts | 76° |
| 2026-04-30 02:34 | 41.56478 | -70.84767 | 5006 ft | 139 kts | 76° |
| 2026-04-30 02:35 | 41.56805 | -70.83553 | 5004 ft | 139 kts | 76° |
| 2026-04-30 02:35 | 41.57109 | -70.82349 | 5005 ft | 137 kts | 83° |
| 2026-04-30 02:35 | 41.57281 | -70.81088 | 5008 ft | 136 kts | 86° |
| 2026-04-30 02:35 | 41.57445 | -70.79859 | 5010 ft | 136 kts | 86° |
| 2026-04-30 02:36 | 41.57610 | -70.78612 | 5010 ft | 136 kts | 86° |
| 2026-04-30 02:36 | 41.57744 | -70.77362 | 5012 ft | 135 kts | 94° |
| 2026-04-30 02:36 | 41.57745 | -70.76116 | 5012 ft | 134 kts | 96° |
| 2026-04-30 02:36 | 41.57744 | -70.74868 | 5012 ft | 134 kts | 96° |
| 2026-04-30 02:37 | 41.57743 | -70.73615 | 5018 ft | 135 kts | 96° |
| 2026-04-30 02:37 | 41.57742 | -70.72342 | 4881 ft | 143 kts | 96° |
| 2026-04-30 02:37 | 41.57727 | -70.70947 | 4585 ft | 155 kts | 96° |
| 2026-04-30 02:37 | 41.57707 | -70.69476 | 4282 ft | 161 kts | 96° |
| 2026-04-30 02:38 | 41.57681 | -70.67978 | 3980 ft | 162 kts | 96° |
| 2026-04-30 02:38 | 41.57648 | -70.66487 | 3684 ft | 162 kts | 96° |
| 2026-04-30 02:38 | 41.57609 | -70.64983 | 3383 ft | 162 kts | 96° |
| 2026-04-30 02:38 | 41.57567 | -70.63488 | 3088 ft | 160 kts | 96° |
| 2026-04-30 02:39 | 41.57524 | -70.62052 | 3029 ft | 148 kts | 96° |
| 2026-04-30 02:39 | 41.57491 | -70.60723 | 3026 ft | 139 kts | 96° |
| 2026-04-30 02:39 | 41.57464 | -70.59460 | 3025 ft | 134 kts | 96° |
| 2026-04-30 02:39 | 41.57439 | -70.58234 | 3024 ft | 131 kts | 96° |
| 2026-04-30 02:40 | 41.57416 | -70.57025 | 3024 ft | 129 kts | 96° |
| 2026-04-30 02:40 | 41.57395 | -70.55831 | 3023 ft | 128 kts | 96° |
| 2026-04-30 02:40 | 41.57375 | -70.54664 | 3023 ft | 127 kts | 96° |
| 2026-04-30 02:40 | 41.57355 | -70.53471 | 3024 ft | 126 kts | 97° |
| 2026-04-30 02:41 | 41.57001 | -70.52494 | 3036 ft | 119 kts | 135° |
| 2026-04-30 02:41 | 41.56429 | -70.51684 | 3038 ft | 120 kts | 136° |
| 2026-04-30 02:41 | 41.55857 | -70.50871 | 3037 ft | 120 kts | 136° |
| 2026-04-30 02:41 | 41.55282 | -70.50053 | 3036 ft | 120 kts | 136° |
| 2026-04-30 02:42 | 41.54706 | -70.49255 | 3032 ft | 118 kts | 145° |
| 2026-04-30 02:42 | 41.53907 | -70.49154 | 2944 ft | 123 kts | 193° |
| 2026-04-30 02:42 | 41.53372 | -70.49419 | 2790 ft | 125 kts | 196° |
| 2026-04-30 02:42 | 41.52264 | -70.49975 | 2426 ft | 130 kts | 195° |
| 2026-04-30 02:43 | 41.51412 | -70.50402 | 2143 ft | 132 kts | 196° |
| 2026-04-30 02:43 | 41.50576 | -70.50813 | 2023 ft | 121 kts | 196° |
| 2026-04-30 02:43 | 41.49820 | -70.51183 | 2016 ft | 112 kts | 195° |
| 2026-04-30 02:43 | 41.49337 | -70.51423 | 2011 ft | 108 kts | 195° |
| 2026-04-30 02:44 | 41.48621 | -70.51789 | 1885 ft | 114 kts | 196° |
| 2026-04-30 02:44 | 41.47871 | -70.52166 | 1742 ft | 116 kts | 196° |
| 2026-04-30 02:44 | 41.47111 | -70.52548 | 1614 ft | 117 kts | 198° |
| 2026-04-30 02:44 | 41.46432 | -70.53185 | 1506 ft | 119 kts | 211° |
| 2026-04-30 02:45 | 41.45799 | -70.53843 | 1505 ft | 112 kts | 214° |
| 2026-04-30 02:45 | 41.45199 | -70.54491 | 1495 ft | 111 kts | 215° |
| 2026-04-30 02:45 | 41.44590 | -70.55164 | 1359 ft | 116 kts | 216° |
| 2026-04-30 02:45 | 41.43966 | -70.55883 | 1207 ft | 116 kts | 217° |
| 2026-04-30 02:46 | 41.43386 | -70.56546 | 1051 ft | 107 kts | 217° |
| 2026-04-30 02:46 | 41.42826 | -70.57181 | 894 ft | 105 kts | 217° |
| 2026-04-30 02:46 | 41.42274 | -70.57808 | 748 ft | 105 kts | 219° |
| 2026-04-30 02:46 | 41.41742 | -70.58423 | 596 ft | 100 kts | 219° |
| 2026-04-30 02:47 | 41.41215 | -70.59019 | 470 ft | 99 kts | 219° |
| 2026-04-30 02:47 | 41.40694 | -70.59613 | 378 ft | 100 kts | 221° |
| 2026-04-30 02:47 | 41.40195 | -70.60192 | 276 ft | 88 kts | 219° |
| 2026-04-30 02:47 | 41.39743 | -70.60710 | 102 ft | 85 kts | 219° |
| 2026-04-30 02:48 | 41.39342 | -70.61162 | 68 ft | 58 kts | 220° |
| 2026-04-30 02:48 | 41.39108 | -70.61428 | 66 ft | 40 kts | 220° |
| 2026-04-30 02:48 | 41.38937 | -70.61625 | 62 ft | 27 kts | 220° |
| 2026-04-30 02:48 | 41.38840 | -70.61696 | 67 ft | 8 kts | 160° |
| 2026-04-30 02:49 | 41.38815 | -70.61662 | 66 ft | 1 kts | 131° |
| 2026-04-30 02:49 | 41.38807 | -70.61649 | 62 ft | 11 kts | 129° |
| 2026-04-30 02:49 | 41.38840 | -70.61544 | 66 ft | 15 kts | 42° |
| 2026-04-30 02:49 | 41.38918 | -70.61456 | 66 ft | 14 kts | 38° |
| 2026-04-30 02:50 | 41.38979 | -70.61344 | 66 ft | 16 kts | 72° |
| 2026-04-30 02:50 | 41.39034 | -70.61225 | 64 ft | 12 kts | 57° |
| 2026-04-30 02:50 | 41.39029 | -70.61196 | 66 ft | 0 kts | 134° |